createdAt,value
2023-05-09T00:01:13.549Z,13.00
2023-05-09T00:04:16.417Z,14.73
2023-05-09T00:07:18.032Z,14.27
2023-05-09T00:10:19.808Z,11.77
2023-05-09T00:13:21.548Z,12.67
2023-05-09T00:16:24.330Z,11.80
2023-05-09T00:19:26.094Z,13.27
2023-05-09T00:22:27.982Z,11.30
2023-05-09T00:25:29.677Z,12.87
2023-05-09T00:28:31.331Z,10.73
2023-05-09T00:31:33.253Z,13.10
2023-05-09T00:34:34.848Z,10.80
2023-05-09T00:37:36.438Z,11.73
2023-05-09T00:40:38.145Z,12.33
2023-05-09T00:43:40.267Z,12.77
2023-05-09T00:46:43.308Z,11.43
2023-05-09T00:49:45.027Z,12.53
2023-05-09T00:52:46.614Z,11.37
2023-05-09T00:55:48.389Z,13.80
2023-05-09T00:58:50.239Z,14.93
2023-05-09T01:01:52.018Z,13.17
2023-05-09T01:04:53.893Z,12.87
2023-05-09T01:08:00.007Z,14.90
2023-05-09T01:11:06.685Z,15.37
2023-05-09T01:14:08.259Z,16.10
2023-05-09T01:17:29.229Z,17.57
2023-05-09T01:20:37.556Z,17.73
2023-05-09T01:23:42.403Z,17.73
2023-05-09T01:26:46.622Z,15.37
2023-05-09T01:29:51.630Z,15.57
2023-05-09T01:32:56.632Z,14.57
2023-05-09T01:36:01.962Z,14.87
2023-05-09T01:39:05.888Z,14.00
2023-05-09T01:42:08.381Z,14.17
2023-05-09T01:45:10.684Z,13.83
2023-05-09T01:48:12.935Z,15.70
2023-05-09T01:51:15.232Z,14.50
2023-05-09T01:54:17.706Z,14.80
2023-05-09T01:57:19.897Z,14.53
2023-05-09T02:00:22.236Z,16.43
2023-05-09T02:03:24.076Z,18.13
2023-05-09T02:06:26.559Z,17.70
2023-05-09T02:09:28.226Z,15.60
2023-05-09T02:12:29.937Z,15.20
2023-05-09T02:15:31.864Z,16.67
2023-05-09T02:18:37.333Z,15.87
2023-05-09T02:21:39.106Z,17.23
2023-05-09T02:24:43.025Z,16.53
2023-05-09T02:27:46.730Z,15.10
2023-05-09T02:30:49.905Z,16.93
2023-05-09T02:33:52.754Z,14.17
2023-05-09T02:36:54.413Z,16.77
2023-05-09T02:39:56.136Z,15.30
2023-05-09T02:42:57.832Z,16.27
2023-05-09T02:45:59.534Z,17.93
2023-05-09T02:49:01.777Z,14.17
2023-05-09T02:52:03.831Z,14.87
2023-05-09T02:55:07.418Z,13.57
2023-05-09T02:58:14.810Z,14.80
2023-05-09T03:01:18.601Z,11.13
2023-05-09T03:04:20.295Z,10.57
2023-05-09T03:07:21.965Z,10.40
2023-05-09T03:10:23.599Z,11.37
2023-05-09T03:13:25.218Z,9.07
2023-05-09T03:16:26.974Z,10.53
2023-05-09T03:19:28.749Z,9.10
2023-05-09T03:22:30.366Z,8.60
2023-05-09T03:25:36.474Z,8.10
2023-05-09T03:28:38.433Z,8.70
2023-05-09T03:31:41.381Z,8.27
2023-05-09T03:34:43.212Z,7.67
2023-05-09T03:37:45.416Z,7.17
2023-05-09T03:40:47.081Z,7.53
2023-05-09T03:43:49.049Z,9.77
2023-05-09T03:46:50.809Z,8.20
2023-05-09T03:49:53.674Z,10.97
2023-05-09T03:52:58.089Z,11.17
2023-05-09T03:56:00.142Z,10.07
2023-05-09T03:59:04.189Z,14.57
2023-05-09T04:02:08.278Z,14.43
2023-05-09T04:05:10.023Z,16.90
2023-05-09T04:08:12.832Z,19.20
2023-05-09T04:11:14.573Z,19.07
2023-05-09T04:14:19.147Z,19.33
2023-05-09T04:17:23.356Z,22.27
2023-05-09T04:20:25.480Z,19.73
2023-05-09T04:23:27.349Z,19.57
2023-05-09T04:26:39.283Z,15.60
2023-05-09T04:29:44.804Z,14.03
2023-05-09T04:32:46.885Z,12.23
2023-05-09T04:35:49.101Z,13.47
2023-05-09T04:38:53.992Z,12.87
2023-05-09T04:41:59.333Z,8.60
2023-05-09T04:45:02.950Z,10.10
2023-05-09T04:48:05.152Z,11.17
2023-05-09T04:51:07.736Z,11.03
2023-05-09T04:54:12.019Z,7.43
2023-05-09T04:57:18.349Z,5.20
2023-05-09T05:00:30.445Z,5.60
2023-05-09T05:03:32.412Z,6.43
2023-05-09T05:06:34.067Z,6.10
2023-05-09T05:09:35.815Z,6.23
2023-05-09T05:12:40.571Z,5.83
2023-05-09T05:15:45.550Z,5.80
2023-05-09T05:18:48.498Z,5.70
2023-05-09T05:21:51.806Z,7.27
2023-05-09T05:24:53.585Z,6.30
2023-05-09T05:27:55.419Z,6.47
2023-05-09T05:30:57.084Z,8.77
2023-05-09T05:33:58.816Z,9.13
2023-05-09T05:37:01.112Z,11.07
2023-05-09T05:40:03.028Z,8.07
2023-05-09T05:43:05.680Z,7.97
2023-05-09T05:46:09.010Z,7.73
2023-05-09T05:49:10.981Z,8.80
2023-05-09T05:52:12.689Z,8.13
2023-05-09T05:55:14.994Z,6.73
2023-05-09T05:58:16.969Z,5.27
2023-05-09T06:01:18.607Z,8.30
2023-05-09T06:04:20.967Z,8.37
2023-05-09T06:07:22.771Z,4.80
2023-05-09T06:10:24.443Z,4.73
2023-05-09T06:13:26.233Z,3.30
2023-05-09T06:16:34.626Z,4.47
2023-05-09T06:19:37.178Z,11.17
2023-05-09T06:22:38.911Z,20.87
2023-05-09T06:25:40.784Z,10.13
2023-05-09T06:28:42.460Z,3.93
2023-05-09T06:31:44.121Z,8.43
2023-05-09T06:34:45.792Z,5.20
2023-05-09T06:37:48.893Z,4.97
2023-05-09T06:40:50.937Z,6.23
2023-05-09T06:43:52.909Z,4.47
2023-05-09T06:46:54.585Z,13.83
2023-05-09T06:49:56.237Z,4.30
2023-05-09T06:52:57.816Z,10.67
2023-05-09T06:55:59.448Z,4.53
2023-05-09T06:59:01.099Z,4.50
2023-05-09T07:05:03.030Z,5.37
2023-05-09T07:08:04.908Z,5.57
2023-05-09T07:11:06.600Z,5.00
2023-05-09T07:14:08.229Z,6.70
2023-05-09T07:17:22.145Z,9.20
2023-05-09T07:20:25.750Z,6.80
2023-05-09T07:23:27.381Z,11.87
2023-05-09T07:26:29.206Z,7.07
2023-05-09T07:29:30.872Z,7.80
2023-05-09T07:32:32.539Z,8.17
2023-05-09T07:35:34.197Z,7.20
2023-05-09T07:38:35.963Z,13.40
2023-05-09T07:41:37.745Z,6.03
2023-05-09T07:44:40.611Z,8.97
2023-05-09T07:47:42.256Z,8.13
2023-05-09T07:50:44.045Z,7.00
2023-05-09T07:53:45.720Z,10.43
2023-05-09T07:56:47.343Z,11.73
2023-05-09T07:59:48.970Z,12.20
2023-05-09T08:02:51.377Z,17.50
2023-05-09T08:05:53.793Z,11.23
2023-05-09T08:08:55.403Z,12.90
2023-05-09T08:11:57.048Z,12.77
2023-05-09T08:14:58.669Z,12.63
2023-05-09T08:18:00.380Z,13.13
2023-05-09T08:21:02.210Z,15.03
2023-05-09T08:24:04.040Z,10.00
2023-05-09T08:27:05.777Z,17.17
2023-05-09T08:30:07.720Z,12.63
2023-05-09T08:33:09.360Z,19.00
2023-05-09T08:36:10.994Z,14.73
2023-05-09T08:39:12.649Z,11.63
2023-05-09T08:42:16.060Z,10.60
2023-05-09T08:45:20.070Z,10.77
2023-05-09T08:48:22.637Z,12.87
2023-05-09T08:51:24.641Z,10.67
2023-05-09T08:54:26.487Z,11.03
2023-05-09T08:57:28.231Z,13.03
2023-05-09T09:00:30.199Z,12.00
2023-05-09T09:03:32.209Z,11.80
2023-05-09T09:06:34.426Z,13.83
2023-05-09T09:09:36.318Z,13.23
2023-05-09T09:12:38.612Z,11.60
2023-05-09T09:15:41.493Z,11.93
2023-05-09T09:18:43.245Z,13.13
2023-05-09T09:21:45.628Z,10.47
2023-05-09T09:24:47.334Z,11.40
2023-05-09T09:27:48.975Z,22.37
2023-05-09T09:30:50.728Z,18.93
2023-05-09T09:33:52.481Z,40.03
2023-05-09T09:36:54.218Z,14.43
2023-05-09T09:39:56.372Z,9.63
2023-05-09T09:42:58.031Z,10.70
2023-05-09T09:46:03.491Z,12.70
2023-05-09T09:49:05.128Z,12.57
2023-05-09T09:52:07.093Z,9.43
2023-05-09T09:55:08.861Z,15.37
2023-05-09T09:58:25.129Z,7.40
2023-05-09T10:01:26.849Z,8.43
2023-05-09T10:04:30.854Z,11.17
2023-05-09T10:07:33.855Z,7.27
2023-05-09T10:10:36.276Z,6.70
2023-05-09T10:13:38.817Z,5.83
2023-05-09T10:16:44.205Z,5.60
2023-05-09T10:19:47.665Z,6.67
2023-05-09T10:22:49.418Z,5.97
2023-05-09T10:26:09.565Z,7.73
2023-05-09T10:29:12.751Z,6.63
2023-05-09T10:32:20.593Z,6.70
2023-05-09T10:35:26.889Z,10.20
2023-05-09T10:38:28.832Z,9.00
2023-05-09T10:41:31.461Z,6.53
2023-05-09T10:44:33.051Z,8.30
2023-05-09T10:47:34.723Z,8.13
2023-05-09T10:50:37.726Z,11.23
2023-05-09T10:53:43.923Z,12.83
2023-05-09T10:56:45.656Z,13.13
2023-05-09T10:59:47.279Z,9.40
2023-05-09T11:03:10.139Z,9.47
2023-05-09T11:06:31.837Z,7.37
2023-05-09T11:09:41.395Z,6.57
2023-05-09T11:12:57.703Z,8.53
2023-05-09T11:16:03.003Z,7.30
2023-05-09T11:19:05.970Z,12.67
2023-05-09T11:22:14.906Z,8.37
2023-05-09T11:25:17.088Z,9.33
2023-05-09T11:28:29.250Z,8.23
2023-05-09T11:31:30.935Z,9.57
2023-05-09T11:34:33.470Z,10.90
2023-05-09T11:37:39.605Z,8.60
2023-05-09T11:40:41.602Z,11.07
2023-05-09T11:43:44.556Z,9.40
2023-05-09T11:46:47.510Z,8.90
2023-05-09T11:49:49.843Z,8.40
2023-05-09T11:52:51.559Z,8.73
2023-05-09T11:55:53.491Z,7.97
2023-05-09T11:58:55.156Z,6.70
2023-05-09T12:01:56.855Z,9.10
2023-05-09T12:05:07.110Z,8.80
2023-05-09T12:08:09.607Z,10.63
2023-05-09T12:11:11.462Z,9.23
2023-05-09T12:14:25.863Z,7.80
2023-05-09T12:17:27.541Z,10.10
2023-05-09T12:20:39.364Z,8.33
2023-05-09T12:23:41.003Z,9.10
2023-05-09T12:26:42.727Z,7.20
2023-05-09T12:29:46.208Z,8.97
2023-05-09T12:32:48.145Z,9.83
2023-05-09T12:36:00.870Z,11.77
2023-05-09T12:39:02.712Z,12.17
2023-05-09T12:42:11.563Z,10.87
2023-05-09T12:45:13.907Z,9.83
2023-05-09T12:48:15.884Z,27.07
2023-05-09T12:51:21.769Z,8.27
2023-05-09T12:54:24.379Z,9.03
2023-05-09T12:57:29.393Z,13.40
2023-05-09T13:00:45.013Z,13.17
2023-05-09T13:03:53.855Z,12.60
2023-05-09T13:06:57.453Z,13.17
2023-05-09T13:10:00.936Z,12.57
2023-05-09T13:13:04.226Z,12.10
2023-05-09T13:16:08.137Z,11.63
2023-05-09T13:19:12.277Z,13.13
2023-05-09T13:22:13.911Z,13.87
2023-05-09T13:25:16.948Z,15.73
2023-05-09T13:28:18.608Z,17.20
2023-05-09T13:31:20.392Z,12.47
2023-05-09T13:34:22.057Z,15.37
2023-05-09T13:37:23.723Z,16.13
2023-05-09T13:40:25.426Z,13.70
2023-05-09T13:43:27.479Z,15.07
2023-05-09T13:46:29.228Z,15.87
2023-05-09T13:49:31.160Z,17.43
2023-05-09T13:52:32.775Z,15.23
2023-05-09T13:55:35.234Z,19.17
2023-05-09T13:58:36.967Z,17.30
2023-05-09T14:01:38.751Z,16.50
2023-05-09T14:04:41.298Z,20.03
2023-05-09T14:07:42.994Z,20.67
2023-05-09T14:10:44.789Z,19.23
2023-05-09T14:13:46.570Z,22.73
2023-05-09T14:16:48.364Z,19.53
2023-05-09T14:19:51.216Z,28.30
2023-05-09T14:22:55.143Z,19.27
2023-05-09T14:25:58.276Z,23.40
2023-05-09T14:28:59.972Z,26.63
2023-05-09T14:32:01.660Z,24.40
2023-05-09T14:35:03.402Z,26.63
2023-05-09T14:38:05.053Z,21.30
2023-05-09T14:41:07.310Z,20.50
2023-05-09T14:44:08.888Z,22.17
2023-05-09T14:47:10.578Z,20.80
2023-05-09T14:50:15.879Z,21.53
2023-05-09T14:53:17.820Z,23.37
2023-05-09T14:56:19.432Z,23.13
2023-05-09T14:59:23.620Z,25.83
2023-05-09T15:02:25.985Z,20.53
2023-05-09T15:05:27.835Z,24.37
2023-05-09T15:08:30.976Z,25.83
2023-05-09T15:11:43.660Z,27.30
2023-05-09T15:14:54.114Z,19.17
2023-05-09T15:17:55.894Z,26.13
2023-05-09T15:20:57.737Z,24.07
2023-05-09T15:23:59.455Z,21.07
2023-05-09T15:27:01.150Z,24.47
2023-05-09T15:30:03.420Z,22.93
2023-05-09T15:33:05.234Z,22.37
2023-05-09T15:36:08.112Z,21.83
2023-05-09T15:39:12.732Z,21.63
2023-05-09T15:42:15.311Z,20.97
2023-05-09T15:45:17.409Z,21.23
2023-05-09T15:48:22.255Z,22.60
2023-05-09T15:51:24.774Z,23.80
2023-05-09T15:54:27.836Z,22.57
2023-05-09T15:57:29.549Z,40.43
2023-05-09T16:00:31.864Z,22.70
2023-05-09T16:03:34.053Z,21.83
2023-05-09T16:06:36.627Z,23.07
2023-05-09T16:09:38.380Z,16.83
2023-05-09T16:12:40.566Z,19.60
2023-05-09T16:15:42.350Z,21.37
2023-05-09T16:18:44.283Z,21.80
2023-05-09T16:21:46.358Z,21.97
2023-05-09T16:24:49.166Z,21.13
2023-05-09T16:27:50.955Z,19.10
2023-05-09T16:30:52.740Z,22.10
2023-05-09T16:33:54.440Z,24.60
2023-05-09T16:36:56.320Z,25.43
2023-05-09T16:39:59.498Z,23.90
2023-05-09T16:43:01.453Z,22.97
2023-05-09T16:46:03.335Z,23.93
2023-05-09T16:49:05.644Z,24.83
2023-05-09T16:52:07.336Z,24.67
2023-05-09T16:55:09.022Z,23.73
2023-05-09T16:58:10.977Z,23.00
2023-05-09T17:01:12.661Z,29.07
2023-05-09T17:04:14.803Z,44.00
2023-05-09T17:07:16.539Z,27.30
2023-05-09T17:10:18.402Z,26.93
2023-05-09T17:13:20.221Z,37.20
2023-05-09T17:16:22.046Z,30.90
2023-05-09T17:19:23.893Z,30.77
2023-05-09T17:22:25.800Z,33.10
2023-05-09T17:25:28.893Z,28.77
2023-05-09T17:28:30.796Z,25.87
2023-05-09T17:31:32.682Z,31.00
2023-05-09T17:34:34.335Z,29.60
2023-05-09T17:37:36.327Z,31.73
2023-05-09T17:40:38.202Z,30.17
2023-05-09T17:43:39.926Z,27.27
2023-05-09T17:46:41.881Z,26.03
2023-05-09T17:49:44.110Z,23.37
2023-05-09T17:52:45.841Z,30.47
2023-05-09T17:55:47.871Z,31.17
2023-05-09T17:58:53.060Z,30.77
2023-05-09T18:01:55.127Z,29.57
2023-05-09T18:04:56.765Z,35.37
2023-05-09T18:08:01.055Z,25.73
2023-05-09T18:11:03.014Z,24.87
2023-05-09T18:14:04.734Z,25.43
2023-05-09T18:17:06.456Z,26.50
2023-05-09T18:20:08.831Z,30.63
2023-05-09T18:23:10.614Z,24.93
2023-05-09T18:26:12.282Z,26.57
2023-05-09T18:29:13.973Z,26.63
2023-05-09T18:32:16.364Z,25.77
2023-05-09T18:35:17.958Z,26.10
2023-05-09T18:38:22.757Z,28.13
2023-05-09T18:41:25.835Z,31.10
2023-05-09T18:44:27.695Z,36.93
2023-05-09T18:47:29.411Z,29.67
2023-05-09T18:50:31.505Z,27.90
2023-05-09T18:53:33.337Z,28.00
2023-05-09T18:56:39.676Z,30.73
2023-05-09T18:59:41.408Z,28.77
2023-05-09T19:02:43.136Z,29.33
2023-05-09T19:05:46.263Z,30.40
2023-05-09T19:08:50.060Z,31.47
2023-05-09T19:11:51.796Z,30.23
2023-05-09T19:14:58.406Z,32.57
2023-05-09T19:18:00.745Z,32.13
2023-05-09T19:21:05.697Z,29.73
2023-05-09T19:24:15.379Z,27.80
2023-05-09T19:27:17.355Z,29.93
2023-05-09T19:30:20.912Z,28.27
2023-05-09T19:33:22.571Z,27.13
2023-05-09T19:36:24.279Z,28.13
2023-05-09T19:39:25.944Z,28.23
2023-05-09T19:42:27.645Z,27.43
2023-05-09T19:45:29.327Z,28.00
2023-05-09T19:48:31.031Z,28.73
2023-05-09T19:51:32.722Z,27.57
2023-05-09T19:54:34.565Z,25.17
2023-05-09T19:57:40.301Z,25.47
2023-05-09T20:00:42.101Z,31.10
2023-05-09T20:03:46.731Z,24.83
2023-05-09T20:06:50.850Z,24.23
2023-05-09T20:09:55.356Z,23.57
2023-05-09T20:13:01.619Z,24.97
2023-05-09T20:16:03.588Z,24.63
2023-05-09T20:19:09.592Z,24.63
2023-05-09T20:22:11.389Z,23.30
2023-05-09T20:25:13.799Z,30.77
2023-05-09T20:28:20.107Z,24.90
2023-05-09T20:31:21.732Z,25.00
2023-05-09T20:34:24.718Z,22.57
2023-05-09T20:37:26.358Z,24.67
2023-05-09T20:40:28.335Z,25.20
2023-05-09T20:43:30.650Z,27.63
2023-05-09T20:46:32.328Z,28.10
2023-05-09T20:49:34.019Z,26.90
2023-05-09T20:52:35.795Z,28.67
2023-05-09T20:55:37.371Z,27.27
2023-05-09T20:58:39.533Z,28.70
2023-05-09T21:01:41.515Z,27.10
2023-05-09T21:04:43.132Z,23.83
2023-05-09T21:07:44.726Z,26.67
2023-05-09T21:10:46.335Z,25.87
2023-05-09T21:13:48.157Z,28.00
2023-05-09T21:16:51.772Z,24.20
2023-05-09T21:19:53.459Z,26.17
2023-05-09T21:22:55.094Z,25.10
2023-05-09T21:25:57.152Z,26.30
2023-05-09T21:28:58.828Z,28.53
2023-05-09T21:32:00.569Z,26.63
2023-05-09T21:35:02.404Z,27.47
2023-05-09T21:38:04.031Z,23.33
2023-05-09T21:41:05.692Z,24.50
2023-05-09T21:44:07.834Z,25.83
2023-05-09T21:47:10.297Z,25.37
2023-05-09T21:50:11.998Z,28.03
2023-05-09T21:53:13.879Z,27.23
2023-05-09T21:56:15.500Z,25.03
2023-05-09T21:59:20.727Z,24.93
2023-05-09T22:02:22.326Z,26.73
2023-05-09T22:05:24.005Z,26.37
2023-05-09T22:08:25.907Z,27.17
2023-05-09T22:11:27.594Z,23.57
2023-05-09T22:14:29.247Z,25.47
2023-05-09T22:17:31.007Z,25.73
2023-05-09T22:20:32.714Z,28.07
2023-05-09T22:23:34.411Z,26.87
2023-05-09T22:26:36.009Z,27.17
2023-05-09T22:29:37.631Z,25.23
2023-05-09T22:32:39.682Z,25.17
2023-05-09T22:35:41.449Z,24.93
2023-05-09T22:38:43.121Z,26.63
2023-05-09T22:41:44.776Z,26.67
2023-05-09T22:44:47.522Z,22.03
2023-05-09T22:47:49.313Z,24.40
2023-05-09T22:50:50.976Z,21.83
2023-05-09T22:53:52.560Z,21.90
2023-05-09T22:56:54.185Z,17.77
2023-05-09T22:59:55.778Z,20.50
2023-05-09T23:02:59.407Z,17.50
2023-05-09T23:06:01.288Z,17.77
2023-05-09T23:09:03.017Z,20.57
2023-05-09T23:12:04.952Z,18.87
2023-05-09T23:15:07.505Z,20.27
2023-05-09T23:18:09.195Z,19.40
2023-05-09T23:21:11.149Z,19.33
2023-05-09T23:24:12.721Z,17.27
2023-05-09T23:27:14.571Z,17.73
2023-05-09T23:30:16.409Z,18.63
2023-05-09T23:33:18.224Z,17.03
2023-05-09T23:36:19.837Z,17.13
2023-05-09T23:39:21.582Z,20.17
2023-05-09T23:42:23.192Z,18.33
2023-05-09T23:45:24.957Z,17.63
2023-05-09T23:48:26.911Z,18.27
2023-05-09T23:51:28.573Z,16.67
2023-05-09T23:54:30.336Z,15.30
2023-05-09T23:57:31.963Z,17.10
